Terminal Aerodrome Forecast
Issued by NWS Charleston, WV

Current Version | Previous Version | Graphics & Text | Print | Product List | Glossary On
Versions: 1 2 3 4 5 6 7 8 9 10 11 12 13 14 15 16 17 18 19 20 21 22 23 24 25 26 27
000
FTUS41 KRLX 280300 AAB
TAFEKN
TAF AMD
KEKN 280333Z 2804/2824 29009G18KT 2SM -SHSN SCT015 OVC025
      TEMPO 2804/2806 3/4SM -SHSN BR BKN015
     FM280800 29007KT 3SM -SHSN BKN025
     FM281300 28006KT 6SM -SHSN BKN020
     FM281700 28005KT P6SM BKN025
     FM281900 27005KT P6SM SCT035 BKN120
     FM282100 26004KT P6SM BKN100=

USA.gov is the U.S. government's official web portal to all federal, state and local government web resources and services.